sensor_id;sensor_type;location;lat;lon;timestamp;P1;durP1;ratioP1;P2;durP2;ratioP2
58974;SDS011;44751;52.236;5.178;2023-06-22T00:00:55;5.72;;;4.05;;
58974;SDS011;44751;52.236;5.178;2023-06-22T00:03:23;5.20;;;4.30;;
58974;SDS011;44751;52.236;5.178;2023-06-22T00:05:50;5.50;;;4.35;;
58974;SDS011;44751;52.236;5.178;2023-06-22T00:08:17;4.97;;;3.95;;
58974;SDS011;44751;52.236;5.178;2023-06-22T00:10:47;7.00;;;4.82;;
58974;SDS011;44751;52.236;5.178;2023-06-22T00:13:14;5.30;;;4.38;;
58974;SDS011;44751;52.236;5.178;2023-06-22T00:15:41;6.78;;;4.10;;
58974;SDS011;44751;52.236;5.178;2023-06-22T00:18:08;5.63;;;4.55;;
58974;SDS011;44751;52.236;5.178;2023-06-22T00:20:36;6.68;;;4.20;;
58974;SDS011;44751;52.236;5.178;2023-06-22T00:23:03;6.35;;;4.45;;
58974;SDS011;44751;52.236;5.178;2023-06-22T00:25:39;5.75;;;3.92;;
58974;SDS011;44751;52.236;5.178;2023-06-22T00:30:34;7.47;;;5.07;;
58974;SDS011;44751;52.236;5.178;2023-06-22T00:33:00;5.40;;;4.72;;
58974;SDS011;44751;52.236;5.178;2023-06-22T00:35:27;5.43;;;4.18;;
58974;SDS011;44751;52.236;5.178;2023-06-22T00:37:55;7.22;;;4.55;;
58974;SDS011;44751;52.236;5.178;2023-06-22T00:40:28;5.80;;;4.70;;
58974;SDS011;44751;52.236;5.178;2023-06-22T00:42:56;8.30;;;4.80;;
58974;SDS011;44751;52.236;5.178;2023-06-22T00:45:23;5.82;;;4.53;;
58974;SDS011;44751;52.236;5.178;2023-06-22T00:47:53;5.93;;;4.50;;
58974;SDS011;44751;52.236;5.178;2023-06-22T00:50:23;5.47;;;4.70;;
58974;SDS011;44751;52.236;5.178;2023-06-22T00:52:52;6.03;;;4.05;;
58974;SDS011;44751;52.236;5.178;2023-06-22T00:55:21;5.78;;;4.80;;
58974;SDS011;44751;52.236;5.178;2023-06-22T00:57:48;6.40;;;4.85;;
58974;SDS011;44751;52.236;5.178;2023-06-22T01:00:16;8.25;;;5.05;;
58974;SDS011;44751;52.236;5.178;2023-06-22T01:02:45;7.10;;;5.32;;
58974;SDS011;44751;52.236;5.178;2023-06-22T01:05:16;8.00;;;5.43;;
58974;SDS011;44751;52.236;5.178;2023-06-22T01:16:23;8.27;;;7.05;;
58974;SDS011;44751;52.236;5.178;2023-06-22T01:18:53;8.30;;;6.72;;
58974;SDS011;44751;52.236;5.178;2023-06-22T01:21:23;8.20;;;6.53;;
58974;SDS011;44751;52.236;5.178;2023-06-22T01:29:58;9.90;;;7.20;;
58974;SDS011;44751;52.236;5.178;2023-06-22T01:32:30;9.38;;;6.65;;
58974;SDS011;44751;52.236;5.178;2023-06-22T01:34:58;8.60;;;6.65;;
58974;SDS011;44751;52.236;5.178;2023-06-22T01:37:27;9.02;;;6.50;;
58974;SDS011;44751;52.236;5.178;2023-06-22T01:39:56;9.30;;;6.82;;
58974;SDS011;44751;52.236;5.178;2023-06-22T01:42:24;8.57;;;6.68;;
58974;SDS011;44751;52.236;5.178;2023-06-22T01:44:52;7.90;;;6.65;;
58974;SDS011;44751;52.236;5.178;2023-06-22T01:47:20;8.38;;;6.60;;
58974;SDS011;44751;52.236;5.178;2023-06-22T01:49:48;9.65;;;7.43;;
58974;SDS011;44751;52.236;5.178;2023-06-22T01:52:16;11.50;;;7.65;;
58974;SDS011;44751;52.236;5.178;2023-06-22T01:54:45;10.98;;;7.88;;
58974;SDS011;44751;52.236;5.178;2023-06-22T01:57:12;11.05;;;7.95;;
58974;SDS011;44751;52.236;5.178;2023-06-22T02:02:17;12.63;;;9.25;;
58974;SDS011;44751;52.236;5.178;2023-06-22T02:04:52;11.95;;;8.55;;
58974;SDS011;44751;52.236;5.178;2023-06-22T02:07:23;11.77;;;8.90;;
58974;SDS011;44751;52.236;5.178;2023-06-22T02:09:57;12.52;;;9.15;;
58974;SDS011;44751;52.236;5.178;2023-06-22T02:12:25;11.02;;;8.77;;
58974;SDS011;44751;52.236;5.178;2023-06-22T02:14:53;10.95;;;8.48;;
58974;SDS011;44751;52.236;5.178;2023-06-22T02:17:20;11.00;;;8.70;;
58974;SDS011;44751;52.236;5.178;2023-06-22T02:19:47;12.32;;;9.15;;
58974;SDS011;44751;52.236;5.178;2023-06-22T02:22:13;12.40;;;9.18;;
58974;SDS011;44751;52.236;5.178;2023-06-22T02:24:40;12.63;;;9.05;;
58974;SDS011;44751;52.236;5.178;2023-06-22T02:27:06;11.38;;;8.27;;
58974;SDS011;44751;52.236;5.178;2023-06-22T02:29:33;11.27;;;8.73;;
58974;SDS011;44751;52.236;5.178;2023-06-22T02:31:59;10.45;;;9.05;;
58974;SDS011;44751;52.236;5.178;2023-06-22T02:34:26;10.93;;;8.75;;
58974;SDS011;44751;52.236;5.178;2023-06-22T02:36:52;10.73;;;8.90;;
58974;SDS011;44751;52.236;5.178;2023-06-22T02:39:22;10.70;;;8.60;;
58974;SDS011;44751;52.236;5.178;2023-06-22T02:41:50;10.65;;;8.48;;
58974;SDS011;44751;52.236;5.178;2023-06-22T02:44:17;11.93;;;8.40;;
58974;SDS011;44751;52.236;5.178;2023-06-22T02:46:45;11.60;;;8.13;;
58974;SDS011;44751;52.236;5.178;2023-06-22T02:49:12;9.73;;;7.95;;
58974;SDS011;44751;52.236;5.178;2023-06-22T02:51:39;11.80;;;8.65;;
58974;SDS011;44751;52.236;5.178;2023-06-22T02:54:07;12.48;;;8.38;;
58974;SDS011;44751;52.236;5.178;2023-06-22T02:56:34;11.00;;;7.65;;
58974;SDS011;44751;52.236;5.178;2023-06-22T02:59:01;9.98;;;7.82;;
58974;SDS011;44751;52.236;5.178;2023-06-22T03:01:28;10.73;;;8.82;;
58974;SDS011;44751;52.236;5.178;2023-06-22T03:04:03;11.02;;;8.70;;
58974;SDS011;44751;52.236;5.178;2023-06-22T03:06:30;10.98;;;8.40;;
58974;SDS011;44751;52.236;5.178;2023-06-22T03:08:58;12.35;;;8.55;;
58974;SDS011;44751;52.236;5.178;2023-06-22T03:11:26;12.50;;;8.43;;
58974;SDS011;44751;52.236;5.178;2023-06-22T03:13:52;10.82;;;8.55;;
58974;SDS011;44751;52.236;5.178;2023-06-22T03:16:19;13.02;;;8.88;;
58974;SDS011;44751;52.236;5.178;2023-06-22T03:18:45;12.82;;;9.50;;
58974;SDS011;44751;52.236;5.178;2023-06-22T03:21:12;11.20;;;9.80;;
58974;SDS011;44751;52.236;5.178;2023-06-22T03:23:40;11.35;;;9.20;;
58974;SDS011;44751;52.236;5.178;2023-06-22T03:26:08;12.27;;;9.65;;
58974;SDS011;44751;52.236;5.178;2023-06-22T03:28:35;13.20;;;9.25;;
58974;SDS011;44751;52.236;5.178;2023-06-22T03:31:01;13.02;;;8.98;;
58974;SDS011;44751;52.236;5.178;2023-06-22T03:33:31;11.98;;;8.75;;
58974;SDS011;44751;52.236;5.178;2023-06-22T03:35:58;11.18;;;8.18;;
58974;SDS011;44751;52.236;5.178;2023-06-22T03:38:24;12.45;;;9.75;;
58974;SDS011;44751;52.236;5.178;2023-06-22T03:40:51;11.43;;;8.95;;
58974;SDS011;44751;52.236;5.178;2023-06-22T03:43:17;12.00;;;9.98;;
58974;SDS011;44751;52.236;5.178;2023-06-22T03:45:43;13.77;;;10.02;;
58974;SDS011;44751;52.236;5.178;2023-06-22T03:48:10;12.80;;;9.25;;
58974;SDS011;44751;52.236;5.178;2023-06-22T03:50:37;15.55;;;11.18;;
58974;SDS011;44751;52.236;5.178;2023-06-22T03:53:04;12.35;;;9.48;;
58974;SDS011;44751;52.236;5.178;2023-06-22T03:55:30;13.35;;;10.65;;
58974;SDS011;44751;52.236;5.178;2023-06-22T03:57:57;12.93;;;10.68;;
58974;SDS011;44751;52.236;5.178;2023-06-22T04:00:30;14.20;;;10.60;;
58974;SDS011;44751;52.236;5.178;2023-06-22T04:02:57;16.40;;;11.38;;
58974;SDS011;44751;52.236;5.178;2023-06-22T04:05:24;15.40;;;11.93;;
58974;SDS011;44751;52.236;5.178;2023-06-22T04:07:50;15.13;;;11.27;;
58974;SDS011;44751;52.236;5.178;2023-06-22T04:10:17;18.77;;;11.80;;
58974;SDS011;44751;52.236;5.178;2023-06-22T04:12:43;15.38;;;11.85;;
58974;SDS011;44751;52.236;5.178;2023-06-22T04:15:10;14.68;;;10.93;;
58974;SDS011;44751;52.236;5.178;2023-06-22T04:17:37;14.98;;;10.38;;
58974;SDS011;44751;52.236;5.178;2023-06-22T04:20:03;13.50;;;10.38;;
58974;SDS011;44751;52.236;5.178;2023-06-22T04:22:30;14.80;;;10.80;;
58974;SDS011;44751;52.236;5.178;2023-06-22T04:24:56;16.60;;;11.68;;
58974;SDS011;44751;52.236;5.178;2023-06-22T04:27:23;15.70;;;11.50;;
58974;SDS011;44751;52.236;5.178;2023-06-22T04:29:49;16.30;;;12.00;;
58974;SDS011;44751;52.236;5.178;2023-06-22T04:32:16;15.73;;;11.10;;
58974;SDS011;44751;52.236;5.178;2023-06-22T04:34:43;12.68;;;10.68;;
58974;SDS011;44751;52.236;5.178;2023-06-22T04:37:10;13.35;;;10.85;;
58974;SDS011;44751;52.236;5.178;2023-06-22T04:39:40;14.23;;;10.90;;
58974;SDS011;44751;52.236;5.178;2023-06-22T04:42:07;13.00;;;10.32;;
58974;SDS011;44751;52.236;5.178;2023-06-22T04:44:33;17.63;;;11.70;;
58974;SDS011;44751;52.236;5.178;2023-06-22T04:47:01;17.27;;;12.68;;
58974;SDS011;44751;52.236;5.178;2023-06-22T04:49:29;15.27;;;12.05;;
58974;SDS011;44751;52.236;5.178;2023-06-22T04:52:02;18.38;;;13.30;;
58974;SDS011;44751;52.236;5.178;2023-06-22T04:54:30;17.98;;;13.25;;
58974;SDS011;44751;52.236;5.178;2023-06-22T04:57:01;18.75;;;13.02;;
58974;SDS011;44751;52.236;5.178;2023-06-22T04:59:35;21.65;;;15.05;;
58974;SDS011;44751;52.236;5.178;2023-06-22T05:02:04;19.38;;;14.50;;
58974;SDS011;44751;52.236;5.178;2023-06-22T05:04:31;20.40;;;14.85;;
58974;SDS011;44751;52.236;5.178;2023-06-22T05:06:58;22.08;;;16.25;;
58974;SDS011;44751;52.236;5.178;2023-06-22T05:09:26;25.05;;;18.05;;
58974;SDS011;44751;52.236;5.178;2023-06-22T05:11:52;22.20;;;16.65;;
58974;SDS011;44751;52.236;5.178;2023-06-22T05:14:18;27.13;;;19.83;;
58974;SDS011;44751;52.236;5.178;2023-06-22T05:16:45;28.58;;;20.02;;
58974;SDS011;44751;52.236;5.178;2023-06-22T05:19:12;26.13;;;17.95;;
58974;SDS011;44751;52.236;5.178;2023-06-22T05:21:38;27.50;;;19.75;;
58974;SDS011;44751;52.236;5.178;2023-06-22T05:24:05;27.20;;;19.95;;
58974;SDS011;44751;52.236;5.178;2023-06-22T05:26:33;28.95;;;20.83;;
58974;SDS011;44751;52.236;5.178;2023-06-22T05:29:01;29.50;;;21.02;;
58974;SDS011;44751;52.236;5.178;2023-06-22T05:31:28;31.20;;;22.02;;
58974;SDS011;44751;52.236;5.178;2023-06-22T05:33:55;33.60;;;24.02;;
58974;SDS011;44751;52.236;5.178;2023-06-22T05:36:25;28.67;;;22.48;;
58974;SDS011;44751;52.236;5.178;2023-06-22T05:38:52;29.50;;;21.25;;
58974;SDS011;44751;52.236;5.178;2023-06-22T05:41:19;36.85;;;26.67;;
58974;SDS011;44751;52.236;5.178;2023-06-22T05:43:49;36.63;;;25.98;;
58974;SDS011;44751;52.236;5.178;2023-06-22T05:46:16;35.78;;;26.40;;
58974;SDS011;44751;52.236;5.178;2023-06-22T05:48:43;36.03;;;25.90;;
58974;SDS011;44751;52.236;5.178;2023-06-22T05:51:12;34.35;;;25.88;;
58974;SDS011;44751;52.236;5.178;2023-06-22T05:53:39;40.22;;;28.50;;
58974;SDS011;44751;52.236;5.178;2023-06-22T05:56:05;39.63;;;29.33;;
58974;SDS011;44751;52.236;5.178;2023-06-22T05:58:32;39.50;;;29.67;;
58974;SDS011;44751;52.236;5.178;2023-06-22T06:00:58;41.33;;;30.17;;
58974;SDS011;44751;52.236;5.178;2023-06-22T06:03:25;34.85;;;26.75;;
58974;SDS011;44751;52.236;5.178;2023-06-22T06:05:56;34.17;;;25.08;;
58974;SDS011;44751;52.236;5.178;2023-06-22T06:08:23;40.22;;;30.20;;
58974;SDS011;44751;52.236;5.178;2023-06-22T06:10:49;37.28;;;30.23;;
58974;SDS011;44751;52.236;5.178;2023-06-22T06:13:17;36.30;;;27.58;;
58974;SDS011;44751;52.236;5.178;2023-06-22T06:15:44;36.63;;;29.33;;
58974;SDS011;44751;52.236;5.178;2023-06-22T06:18:11;34.88;;;28.33;;
58974;SDS011;44751;52.236;5.178;2023-06-22T06:20:41;41.90;;;30.08;;
58974;SDS011;44751;52.236;5.178;2023-06-22T06:23:09;37.10;;;28.58;;
58974;SDS011;44751;52.236;5.178;2023-06-22T06:25:36;34.28;;;26.58;;
58974;SDS011;44751;52.236;5.178;2023-06-22T06:28:02;34.30;;;26.77;;
58974;SDS011;44751;52.236;5.178;2023-06-22T06:30:29;31.27;;;25.63;;
58974;SDS011;44751;52.236;5.178;2023-06-22T06:32:56;30.90;;;25.77;;
58974;SDS011;44751;52.236;5.178;2023-06-22T06:35:22;33.25;;;26.67;;
58974;SDS011;44751;52.236;5.178;2023-06-22T06:37:49;33.05;;;27.02;;
58974;SDS011;44751;52.236;5.178;2023-06-22T06:40:17;32.00;;;25.25;;
58974;SDS011;44751;52.236;5.178;2023-06-22T06:42:48;31.33;;;24.65;;
58974;SDS011;44751;52.236;5.178;2023-06-22T06:45:15;33.25;;;25.70;;
58974;SDS011;44751;52.236;5.178;2023-06-22T06:47:47;31.75;;;24.25;;
58974;SDS011;44751;52.236;5.178;2023-06-22T06:50:14;30.20;;;24.52;;
58974;SDS011;44751;52.236;5.178;2023-06-22T06:52:42;28.83;;;23.90;;
58974;SDS011;44751;52.236;5.178;2023-06-22T06:55:09;30.42;;;24.58;;
58974;SDS011;44751;52.236;5.178;2023-06-22T06:57:39;28.42;;;23.75;;
58974;SDS011;44751;52.236;5.178;2023-06-22T07:00:12;32.22;;;25.25;;
58974;SDS011;44751;52.236;5.178;2023-06-22T07:02:40;29.67;;;24.27;;
58974;SDS011;44751;52.236;5.178;2023-06-22T07:05:13;29.05;;;22.80;;
58974;SDS011;44751;52.236;5.178;2023-06-22T07:07:39;27.08;;;22.65;;
58974;SDS011;44751;52.236;5.178;2023-06-22T07:10:07;27.83;;;22.35;;
58974;SDS011;44751;52.236;5.178;2023-06-22T07:12:34;29.88;;;24.08;;
58974;SDS011;44751;52.236;5.178;2023-06-22T07:15:02;27.50;;;21.92;;
58974;SDS011;44751;52.236;5.178;2023-06-22T07:17:34;27.88;;;23.65;;
58974;SDS011;44751;52.236;5.178;2023-06-22T07:20:01;28.08;;;22.35;;
58974;SDS011;44751;52.236;5.178;2023-06-22T07:22:29;30.33;;;21.98;;
58974;SDS011;44751;52.236;5.178;2023-06-22T07:24:55;26.90;;;21.13;;
58974;SDS011;44751;52.236;5.178;2023-06-22T07:27:21;26.70;;;21.00;;
58974;SDS011;44751;52.236;5.178;2023-06-22T07:29:48;27.15;;;21.77;;
58974;SDS011;44751;52.236;5.178;2023-06-22T07:32:14;28.05;;;22.10;;
58974;SDS011;44751;52.236;5.178;2023-06-22T07:34:42;24.42;;;20.63;;
58974;SDS011;44751;52.236;5.178;2023-06-22T07:37:08;27.00;;;22.88;;
58974;SDS011;44751;52.236;5.178;2023-06-22T07:39:35;29.25;;;21.77;;
58974;SDS011;44751;52.236;5.178;2023-06-22T07:42:02;26.67;;;20.33;;
58974;SDS011;44751;52.236;5.178;2023-06-22T07:44:29;30.70;;;23.10;;
58974;SDS011;44751;52.236;5.178;2023-06-22T07:46:55;27.33;;;22.75;;
58974;SDS011;44751;52.236;5.178;2023-06-22T07:49:22;24.27;;;20.63;;
58974;SDS011;44751;52.236;5.178;2023-06-22T07:51:48;26.85;;;21.30;;
58974;SDS011;44751;52.236;5.178;2023-06-22T07:54:15;23.33;;;19.67;;
58974;SDS011;44751;52.236;5.178;2023-06-22T07:56:42;24.30;;;20.73;;
58974;SDS011;44751;52.236;5.178;2023-06-22T07:59:09;23.45;;;19.17;;
58974;SDS011;44751;52.236;5.178;2023-06-22T08:01:35;25.02;;;21.35;;
58974;SDS011;44751;52.236;5.178;2023-06-22T08:04:02;24.63;;;20.77;;
58974;SDS011;44751;52.236;5.178;2023-06-22T08:06:29;22.42;;;19.58;;
58974;SDS011;44751;52.236;5.178;2023-06-22T08:08:56;25.35;;;21.00;;
58974;SDS011;44751;52.236;5.178;2023-06-22T08:11:24;24.08;;;20.67;;
58974;SDS011;44751;52.236;5.178;2023-06-22T08:13:51;23.60;;;19.13;;
58974;SDS011;44751;52.236;5.178;2023-06-22T08:16:19;23.77;;;19.95;;
58974;SDS011;44751;52.236;5.178;2023-06-22T08:18:46;22.05;;;18.73;;
58974;SDS011;44751;52.236;5.178;2023-06-22T08:21:13;24.23;;;18.85;;
58974;SDS011;44751;52.236;5.178;2023-06-22T08:23:39;21.00;;;17.33;;
58974;SDS011;44751;52.236;5.178;2023-06-22T08:26:05;20.00;;;17.77;;
58974;SDS011;44751;52.236;5.178;2023-06-22T08:28:32;22.15;;;17.67;;
58974;SDS011;44751;52.236;5.178;2023-06-22T08:30:59;21.00;;;16.52;;
58974;SDS011;44751;52.236;5.178;2023-06-22T08:33:26;20.15;;;17.23;;
58974;SDS011;44751;52.236;5.178;2023-06-22T08:35:53;16.27;;;14.50;;
58974;SDS011;44751;52.236;5.178;2023-06-22T08:38:24;18.58;;;15.98;;
58974;SDS011;44751;52.236;5.178;2023-06-22T08:40:50;19.88;;;15.48;;
58974;SDS011;44751;52.236;5.178;2023-06-22T08:43:17;17.38;;;15.52;;
58974;SDS011;44751;52.236;5.178;2023-06-22T08:45:43;17.02;;;13.05;;
58974;SDS011;44751;52.236;5.178;2023-06-22T08:48:10;14.63;;;12.40;;
58974;SDS011;44751;52.236;5.178;2023-06-22T08:50:37;15.88;;;13.48;;
58974;SDS011;44751;52.236;5.178;2023-06-22T08:53:05;14.30;;;12.80;;
58974;SDS011;44751;52.236;5.178;2023-06-22T08:55:32;14.48;;;11.63;;
58974;SDS011;44751;52.236;5.178;2023-06-22T08:57:59;11.85;;;10.48;;
58974;SDS011;44751;52.236;5.178;2023-06-22T09:00:25;13.15;;;11.68;;
58974;SDS011;44751;52.236;5.178;2023-06-22T09:02:54;13.07;;;11.60;;
58974;SDS011;44751;52.236;5.178;2023-06-22T09:05:24;15.55;;;11.93;;
58974;SDS011;44751;52.236;5.178;2023-06-22T09:07:51;15.27;;;11.90;;
58974;SDS011;44751;52.236;5.178;2023-06-22T09:10:19;13.23;;;10.48;;
58974;SDS011;44751;52.236;5.178;2023-06-22T09:12:46;12.70;;;9.98;;
58974;SDS011;44751;52.236;5.178;2023-06-22T09:15:12;11.32;;;9.88;;
58974;SDS011;44751;52.236;5.178;2023-06-22T09:17:40;9.07;;;7.70;;
58974;SDS011;44751;52.236;5.178;2023-06-22T09:20:07;12.43;;;8.52;;
58974;SDS011;44751;52.236;5.178;2023-06-22T09:22:36;10.57;;;8.55;;
58974;SDS011;44751;52.236;5.178;2023-06-22T09:25:02;11.65;;;7.40;;
58974;SDS011;44751;52.236;5.178;2023-06-22T09:27:29;13.07;;;9.45;;
58974;SDS011;44751;52.236;5.178;2023-06-22T09:29:56;11.68;;;8.68;;
58974;SDS011;44751;52.236;5.178;2023-06-22T09:32:23;11.57;;;8.48;;
58974;SDS011;44751;52.236;5.178;2023-06-22T09:34:50;11.77;;;8.75;;
58974;SDS011;44751;52.236;5.178;2023-06-22T09:37:16;11.95;;;8.43;;
58974;SDS011;44751;52.236;5.178;2023-06-22T09:39:43;10.38;;;7.88;;
58974;SDS011;44751;52.236;5.178;2023-06-22T09:42:09;8.50;;;6.43;;
58974;SDS011;44751;52.236;5.178;2023-06-22T09:44:36;7.28;;;5.57;;
58974;SDS011;44751;52.236;5.178;2023-06-22T09:47:03;8.63;;;7.40;;
58974;SDS011;44751;52.236;5.178;2023-06-22T09:49:29;8.35;;;6.63;;
58974;SDS011;44751;52.236;5.178;2023-06-22T09:51:57;9.65;;;6.57;;
58974;SDS011;44751;52.236;5.178;2023-06-22T09:54:23;8.35;;;7.38;;
58974;SDS011;44751;52.236;5.178;2023-06-22T09:56:50;10.13;;;7.18;;
58974;SDS011;44751;52.236;5.178;2023-06-22T09:59:16;9.15;;;6.97;;
58974;SDS011;44751;52.236;5.178;2023-06-22T10:01:42;8.25;;;6.57;;
58974;SDS011;44751;52.236;5.178;2023-06-22T10:04:09;9.68;;;6.28;;
58974;SDS011;44751;52.236;5.178;2023-06-22T10:06:35;12.85;;;8.25;;
58974;SDS011;44751;52.236;5.178;2023-06-22T10:09:06;14.20;;;9.10;;
58974;SDS011;44751;52.236;5.178;2023-06-22T10:11:33;10.35;;;7.40;;
58974;SDS011;44751;52.236;5.178;2023-06-22T10:14:01;9.18;;;6.60;;
58974;SDS011;44751;52.236;5.178;2023-06-22T10:16:32;10.65;;;6.63;;
58974;SDS011;44751;52.236;5.178;2023-06-22T10:19:00;7.63;;;5.72;;
58974;SDS011;44751;52.236;5.178;2023-06-22T10:21:27;8.25;;;6.70;;
58974;SDS011;44751;52.236;5.178;2023-06-22T10:23:53;12.18;;;7.18;;
58974;SDS011;44751;52.236;5.178;2023-06-22T10:26:20;10.25;;;7.05;;
58974;SDS011;44751;52.236;5.178;2023-06-22T10:28:47;10.02;;;5.93;;
58974;SDS011;44751;52.236;5.178;2023-06-22T10:31:13;9.30;;;6.93;;
58974;SDS011;44751;52.236;5.178;2023-06-22T10:33:41;6.70;;;5.43;;
58974;SDS011;44751;52.236;5.178;2023-06-22T10:36:09;8.75;;;6.45;;
58974;SDS011;44751;52.236;5.178;2023-06-22T10:38:36;8.18;;;5.70;;
58974;SDS011;44751;52.236;5.178;2023-06-22T10:41:02;8.65;;;6.25;;
58974;SDS011;44751;52.236;5.178;2023-06-22T10:43:29;7.82;;;6.10;;
58974;SDS011;44751;52.236;5.178;2023-06-22T10:45:55;11.73;;;7.00;;
58974;SDS011;44751;52.236;5.178;2023-06-22T10:48:22;10.63;;;8.20;;
58974;SDS011;44751;52.236;5.178;2023-06-22T10:50:48;9.00;;;7.80;;
58974;SDS011;44751;52.236;5.178;2023-06-22T10:53:15;7.25;;;5.93;;
58974;SDS011;44751;52.236;5.178;2023-06-22T10:55:41;6.85;;;5.35;;
58974;SDS011;44751;52.236;5.178;2023-06-22T10:58:07;8.35;;;5.53;;
58974;SDS011;44751;52.236;5.178;2023-06-22T11:00:34;6.55;;;4.97;;
58974;SDS011;44751;52.236;5.178;2023-06-22T11:03:00;11.35;;;6.70;;
58974;SDS011;44751;52.236;5.178;2023-06-22T11:05:27;7.00;;;5.40;;
58974;SDS011;44751;52.236;5.178;2023-06-22T11:07:53;8.50;;;5.40;;
58974;SDS011;44751;52.236;5.178;2023-06-22T11:10:19;6.78;;;4.28;;
58974;SDS011;44751;52.236;5.178;2023-06-22T11:12:46;7.32;;;5.90;;
58974;SDS011;44751;52.236;5.178;2023-06-22T11:15:12;6.32;;;5.72;;
58974;SDS011;44751;52.236;5.178;2023-06-22T11:17:39;6.65;;;5.47;;
58974;SDS011;44751;52.236;5.178;2023-06-22T11:20:05;8.32;;;5.35;;
58974;SDS011;44751;52.236;5.178;2023-06-22T11:22:35;7.40;;;4.70;;
58974;SDS011;44751;52.236;5.178;2023-06-22T11:25:06;6.07;;;4.75;;
58974;SDS011;44751;52.236;5.178;2023-06-22T11:27:33;7.32;;;5.32;;
58974;SDS011;44751;52.236;5.178;2023-06-22T11:30:00;7.68;;;5.57;;
58974;SDS011;44751;52.236;5.178;2023-06-22T11:32:26;9.38;;;6.43;;
58974;SDS011;44751;52.236;5.178;2023-06-22T11:34:53;6.90;;;5.40;;
58974;SDS011;44751;52.236;5.178;2023-06-22T11:37:19;7.82;;;4.95;;
58974;SDS011;44751;52.236;5.178;2023-06-22T11:39:46;9.35;;;6.22;;
58974;SDS011;44751;52.236;5.178;2023-06-22T11:42:12;10.10;;;6.57;;
58974;SDS011;44751;52.236;5.178;2023-06-22T11:44:38;9.35;;;7.55;;
58974;SDS011;44751;52.236;5.178;2023-06-22T11:47:05;9.80;;;7.00;;
58974;SDS011;44751;52.236;5.178;2023-06-22T11:49:32;11.43;;;7.43;;
58974;SDS011;44751;52.236;5.178;2023-06-22T11:51:58;10.35;;;7.65;;
58974;SDS011;44751;52.236;5.178;2023-06-22T11:54:25;10.43;;;8.20;;
58974;SDS011;44751;52.236;5.178;2023-06-22T11:56:51;8.88;;;7.43;;
58974;SDS011;44751;52.236;5.178;2023-06-22T11:59:18;10.93;;;8.43;;
58974;SDS011;44751;52.236;5.178;2023-06-22T12:01:47;11.07;;;7.93;;
58974;SDS011;44751;52.236;5.178;2023-06-22T12:04:14;10.50;;;8.38;;
58974;SDS011;44751;52.236;5.178;2023-06-22T12:06:41;8.68;;;7.43;;
58974;SDS011;44751;52.236;5.178;2023-06-22T12:09:08;10.23;;;8.63;;
58974;SDS011;44751;52.236;5.178;2023-06-22T12:11:35;11.43;;;8.88;;
58974;SDS011;44751;52.236;5.178;2023-06-22T12:14:02;14.00;;;9.68;;
58974;SDS011;44751;52.236;5.178;2023-06-22T12:16:28;14.95;;;10.45;;
58974;SDS011;44751;52.236;5.178;2023-06-22T12:18:55;12.80;;;9.68;;
58974;SDS011;44751;52.236;5.178;2023-06-22T12:21:21;10.18;;;9.05;;
58974;SDS011;44751;52.236;5.178;2023-06-22T12:23:48;12.63;;;9.55;;
58974;SDS011;44751;52.236;5.178;2023-06-22T12:26:14;12.18;;;9.82;;
58974;SDS011;44751;52.236;5.178;2023-06-22T12:28:41;14.48;;;10.13;;
58974;SDS011;44751;52.236;5.178;2023-06-22T12:31:07;12.57;;;10.82;;
58974;SDS011;44751;52.236;5.178;2023-06-22T12:33:34;16.20;;;11.85;;
58974;SDS011;44751;52.236;5.178;2023-06-22T12:36:00;15.95;;;13.18;;
58974;SDS011;44751;52.236;5.178;2023-06-22T12:38:27;14.38;;;10.80;;
58974;SDS011;44751;52.236;5.178;2023-06-22T12:40:53;12.38;;;10.60;;
58974;SDS011;44751;52.236;5.178;2023-06-22T12:43:20;13.63;;;12.18;;
58974;SDS011;44751;52.236;5.178;2023-06-22T12:45:46;15.43;;;11.82;;
58974;SDS011;44751;52.236;5.178;2023-06-22T12:48:13;13.45;;;11.30;;
58974;SDS011;44751;52.236;5.178;2023-06-22T12:50:39;14.15;;;11.35;;
58974;SDS011;44751;52.236;5.178;2023-06-22T12:53:06;12.45;;;10.40;;
58974;SDS011;44751;52.236;5.178;2023-06-22T12:55:35;12.13;;;9.63;;
58974;SDS011;44751;52.236;5.178;2023-06-22T12:58:02;13.95;;;9.95;;
58974;SDS011;44751;52.236;5.178;2023-06-22T13:00:28;11.63;;;9.30;;
58974;SDS011;44751;52.236;5.178;2023-06-22T13:02:54;10.15;;;8.65;;
58974;SDS011;44751;52.236;5.178;2023-06-22T13:05:21;9.73;;;7.78;;
58974;SDS011;44751;52.236;5.178;2023-06-22T13:07:48;10.30;;;7.60;;
58974;SDS011;44751;52.236;5.178;2023-06-22T13:10:14;7.72;;;6.25;;
58974;SDS011;44751;52.236;5.178;2023-06-22T13:12:41;8.05;;;5.97;;
58974;SDS011;44751;52.236;5.178;2023-06-22T13:15:07;9.20;;;6.13;;
58974;SDS011;44751;52.236;5.178;2023-06-22T13:17:34;9.90;;;7.07;;
58974;SDS011;44751;52.236;5.178;2023-06-22T13:20:00;10.88;;;7.55;;
58974;SDS011;44751;52.236;5.178;2023-06-22T13:24:56;10.60;;;7.05;;
58974;SDS011;44751;52.236;5.178;2023-06-22T13:27:24;13.07;;;7.18;;
58974;SDS011;44751;52.236;5.178;2023-06-22T13:29:50;11.25;;;8.18;;
58974;SDS011;44751;52.236;5.178;2023-06-22T13:32:17;9.30;;;8.07;;
58974;SDS011;44751;52.236;5.178;2023-06-22T13:34:46;9.63;;;7.32;;
58974;SDS011;44751;52.236;5.178;2023-06-22T13:37:13;11.95;;;7.97;;
58974;SDS011;44751;52.236;5.178;2023-06-22T13:39:40;10.25;;;9.00;;
58974;SDS011;44751;52.236;5.178;2023-06-22T13:42:06;10.13;;;9.00;;
58974;SDS011;44751;52.236;5.178;2023-06-22T13:44:33;10.75;;;8.55;;
58974;SDS011;44751;52.236;5.178;2023-06-22T13:46:59;13.50;;;10.23;;
58974;SDS011;44751;52.236;5.178;2023-06-22T13:49:26;11.50;;;9.20;;
58974;SDS011;44751;52.236;5.178;2023-06-22T13:51:52;11.85;;;9.43;;
58974;SDS011;44751;52.236;5.178;2023-06-22T13:54:19;11.68;;;9.52;;
58974;SDS011;44751;52.236;5.178;2023-06-22T13:56:48;12.07;;;9.80;;
58974;SDS011;44751;52.236;5.178;2023-06-22T13:59:14;12.60;;;9.77;;
58974;SDS011;44751;52.236;5.178;2023-06-22T14:01:41;11.57;;;8.55;;
58974;SDS011;44751;52.236;5.178;2023-06-22T14:04:08;10.65;;;9.55;;
58974;SDS011;44751;52.236;5.178;2023-06-22T14:06:35;11.20;;;9.63;;
58974;SDS011;44751;52.236;5.178;2023-06-22T14:09:01;11.50;;;10.30;;
58974;SDS011;44751;52.236;5.178;2023-06-22T14:11:28;11.00;;;9.80;;
58974;SDS011;44751;52.236;5.178;2023-06-22T14:13:54;12.05;;;10.52;;
58974;SDS011;44751;52.236;5.178;2023-06-22T14:16:21;13.93;;;10.43;;
58974;SDS011;44751;52.236;5.178;2023-06-22T14:18:47;13.75;;;10.68;;
58974;SDS011;44751;52.236;5.178;2023-06-22T14:21:14;14.68;;;10.52;;
58974;SDS011;44751;52.236;5.178;2023-06-22T14:23:40;14.48;;;11.57;;
58974;SDS011;44751;52.236;5.178;2023-06-22T14:26:07;15.25;;;11.35;;
58974;SDS011;44751;52.236;5.178;2023-06-22T14:28:33;13.25;;;11.15;;
58974;SDS011;44751;52.236;5.178;2023-06-22T14:31:02;14.23;;;10.88;;
58974;SDS011;44751;52.236;5.178;2023-06-22T14:33:28;13.77;;;10.25;;
58974;SDS011;44751;52.236;5.178;2023-06-22T14:35:55;15.52;;;11.20;;
58974;SDS011;44751;52.236;5.178;2023-06-22T14:38:21;12.60;;;10.98;;
58974;SDS011;44751;52.236;5.178;2023-06-22T14:40:48;16.42;;;11.63;;
58974;SDS011;44751;52.236;5.178;2023-06-22T14:43:14;16.27;;;11.45;;
58974;SDS011;44751;52.236;5.178;2023-06-22T14:45:41;14.82;;;11.55;;
58974;SDS011;44751;52.236;5.178;2023-06-22T14:48:07;13.30;;;11.80;;
58974;SDS011;44751;52.236;5.178;2023-06-22T14:50:36;13.90;;;11.85;;
58974;SDS011;44751;52.236;5.178;2023-06-22T14:53:03;15.85;;;12.18;;